Time;durP1;ratioP1;P1;durP2;ratioP2;P2;SDS_P1;SDS_P2;PMS_P1;PMS_P2;Temp;Humidity;BMP_temperature;BMP_pressure;BME280_temperature;BME280_humidity;BME280_pressure;Samples;Min_cycle;Max_cycle;Signal;HPM_P1;HPM_P2
2021/07/01 00:01:46;;;;;;;7.70;5.70;;;17.70;99.90;;;;;;5069268;28;20952;-50
2021/07/01 00:04:14;;;;;;;7.93;5.70;;;17.90;99.90;;;;;;5069816;28;20657;-49
2021/07/01 00:06:41;;;;;;;6.33;5.73;;;18.00;99.80;;;;;;5069630;28;20657;-50
2021/07/01 00:09:14;;;;;;;8.47;6.57;;;18.00;99.60;;;;;;5069191;28;21208;-48
2021/07/01 00:11:41;;;;;;;7.43;6.13;;;18.10;99.50;;;;;;5069157;28;20661;-49
2021/07/01 00:14:08;;;;;;;5.33;4.93;;;18.00;99.40;;;;;;5068699;28;20700;-49
2021/07/01 00:16:37;;;;;;;7.30;6.17;;;18.00;99.40;;;;;;5069413;28;20645;-49
2021/07/01 00:19:04;;;;;;;8.60;6.13;;;18.00;99.30;;;;;;5069274;28;21181;-48
2021/07/01 00:21:32;;;;;;;6.77;6.07;;;18.00;99.40;;;;;;5069540;28;20657;-50
2021/07/01 00:23:59;;;;;;;7.07;6.47;;;18.10;99.60;;;;;;5069479;28;20653;-49
2021/07/01 00:26:26;;;;;;;5.70;5.20;;;18.20;99.10;;;;;;5069453;28;20684;-50
2021/07/01 00:28:53;;;;;;;7.00;6.20;;;18.20;98.80;;;;;;5069167;28;20652;-50
2021/07/01 00:31:21;;;;;;;6.10;5.17;;;18.20;98.80;;;;;;5068985;28;20772;-49
2021/07/01 00:33:50;;;;;;;6.00;5.40;;;18.20;99.10;;;;;;5069004;28;20685;-49
2021/07/01 00:36:17;;;;;;;6.80;6.20;;;18.20;99.00;;;;;;5068889;28;20674;-50
2021/07/01 00:38:44;;;;;;;6.47;5.87;;;18.30;99.10;;;;;;5069483;28;20633;-50
2021/07/01 00:41:11;;;;;;;6.77;6.27;;;18.20;99.20;;;;;;5069089;28;20668;-50
2021/07/01 00:43:39;;;;;;;7.03;6.43;;;18.20;99.00;;;;;;5068913;28;20621;-50
2021/07/01 00:46:06;;;;;;;7.03;6.33;;;18.20;99.20;;;;;;5068519;28;20988;-49
2021/07/01 00:48:33;;;;;;;7.50;6.27;;;18.20;99.10;;;;;;5048848;28;20662;-50
2021/07/01 00:51:01;;;;;;;6.97;6.30;;;18.10;99.00;;;;;;5048612;28;20649;-50
2021/07/01 00:53:29;;;;;;;6.17;5.63;;;18.00;99.20;;;;;;5057581;28;20653;-50
2021/07/01 00:55:56;;;;;;;7.13;6.60;;;18.20;99.10;;;;;;5069359;28;20689;-50
2021/07/01 00:58:23;;;;;;;10.83;7.30;;;18.10;99.10;;;;;;5072521;28;20695;-50
2021/07/01 01:01:01;;;;;;;6.33;5.83;;;18.10;99.20;;;;;;5071536;28;21196;-49
2021/07/01 01:03:28;;;;;;;11.07;5.83;;;18.20;99.10;;;;;;5071657;28;21173;-50
2021/07/01 01:05:56;;;;;;;7.10;4.77;;;18.30;98.70;;;;;;5072607;28;21216;-49
2021/07/01 01:08:24;;;;;;;5.23;4.77;;;18.40;98.70;;;;;;5072838;28;20653;-49
2021/07/01 01:10:51;;;;;;;5.63;5.13;;;18.50;98.30;;;;;;5071154;28;20656;-50
2021/07/01 01:13:24;;;;;;;5.60;5.10;;;18.30;98.20;;;;;;5072695;28;20652;-50
2021/07/01 01:15:53;;;;;;;4.50;4.13;;;18.50;98.50;;;;;;5072093;28;20698;-50
2021/07/01 01:18:20;;;;;;;3.97;3.67;;;18.70;98.10;;;;;;5072099;28;20658;-48
2021/07/01 01:20:47;;;;;;;7.73;4.83;;;18.70;97.50;;;;;;5072237;28;20775;-50
2021/07/01 01:23:17;;;;;;;4.40;4.00;;;18.70;97.30;;;;;;5072458;28;20682;-50
2021/07/01 01:25:45;;;;;;;5.30;3.77;;;18.60;97.50;;;;;;5072373;28;20689;-49
2021/07/01 01:28:12;;;;;;;4.33;3.90;;;18.50;97.80;;;;;;5054627;28;21227;-49
2021/07/01 01:30:40;;;;;;;6.27;4.00;;;18.50;97.50;;;;;;5072451;28;20754;-48
2021/07/01 01:33:07;;;;;;;4.13;3.37;;;18.50;97.60;;;;;;5071855;28;20636;-48
2021/07/01 01:35:34;;;;;;;4.83;4.43;;;18.40;97.50;;;;;;5071635;28;20757;-49
2021/07/01 01:38:02;;;;;;;6.20;4.40;;;18.20;97.40;;;;;;5071075;28;20664;-48
2021/07/01 01:40:30;;;;;;;5.03;4.53;;;18.10;98.00;;;;;;5071656;28;20664;-49
2021/07/01 01:42:57;;;;;;;4.37;3.97;;;18.10;98.10;;;;;;5071984;28;20652;-49
2021/07/01 01:45:25;;;;;;;4.57;3.93;;;18.20;98.20;;;;;;5072207;28;20649;-49
2021/07/01 01:47:52;;;;;;;4.60;3.47;;;18.00;97.80;;;;;;5071363;28;20633;-49
2021/07/01 01:50:19;;;;;;;3.87;3.10;;;17.80;97.90;;;;;;5071571;28;20723;-48
2021/07/01 01:52:47;;;;;;;3.80;3.50;;;17.70;98.30;;;;;;5071165;28;20740;-48
2021/07/01 01:55:14;;;;;;;6.40;3.47;;;17.60;98.60;;;;;;5071385;28;20784;-48
2021/07/01 01:57:45;;;;;;;4.27;3.87;;;17.90;99.20;;;;;;5071638;28;20613;-49
2021/07/01 02:00:13;;;;;;;3.60;3.30;;;18.10;98.40;;;;;;5071275;28;20981;-49
2021/07/01 02:02:40;;;;;;;4.00;3.70;;;18.10;98.00;;;;;;5071582;28;20621;-49
2021/07/01 02:05:08;;;;;;;4.10;3.70;;;18.00;97.90;;;;;;5071117;28;21076;-48
2021/07/01 02:07:36;;;;;;;3.80;3.50;;;18.00;98.20;;;;;;5070491;28;20660;-47
2021/07/01 02:10:03;;;;;;;5.90;4.80;;;18.00;98.30;;;;;;5070460;28;20620;-48
2021/07/01 02:12:31;;;;;;;4.77;4.30;;;18.00;98.20;;;;;;5070946;28;20653;-48
2021/07/01 02:14:59;;;;;;;3.83;3.53;;;18.00;98.20;;;;;;5070939;28;21303;-47
2021/07/01 02:17:26;;;;;;;5.33;4.93;;;18.10;98.20;;;;;;5070927;28;20657;-48
2021/07/01 02:19:54;;;;;;;5.73;3.50;;;18.10;97.80;;;;;;5070721;28;20668;-48
2021/07/01 02:22:21;;;;;;;4.23;3.73;;;18.10;98.10;;;;;;5069718;28;21201;-48
2021/07/01 02:24:48;;;;;;;4.43;3.70;;;18.10;97.90;;;;;;5070194;28;20669;-47
2021/07/01 02:27:15;;;;;;;7.87;4.97;;;18.00;97.70;;;;;;5070596;28;20656;-48
2021/07/01 02:29:42;;;;;;;3.50;3.20;;;18.10;97.90;;;;;;5070463;28;21157;-47
2021/07/01 02:32:11;;;;;;;4.43;4.00;;;18.10;98.00;;;;;;5070606;28;20617;-47
2021/07/01 02:34:41;;;;;;;5.40;5.00;;;18.10;97.90;;;;;;5070680;28;20704;-48
2021/07/01 02:37:08;;;;;;;11.87;5.30;;;18.00;97.70;;;;;;5069962;28;20689;-49
2021/07/01 02:39:35;;;;;;;4.03;3.37;;;18.10;97.80;;;;;;5070842;28;20659;-47
2021/07/01 02:42:03;;;;;;;4.77;4.27;;;18.00;98.00;;;;;;5070604;28;20662;-49
2021/07/01 02:44:30;;;;;;;5.43;3.90;;;17.80;97.60;;;;;;5071133;28;20661;-48
2021/07/01 02:46:57;;;;;;;4.50;4.10;;;17.70;98.10;;;;;;5070790;28;20653;-49
2021/07/01 02:49:26;;;;;;;4.20;3.80;;;17.80;98.70;;;;;;5071962;28;20629;-48
2021/07/01 02:51:53;;;;;;;6.80;4.10;;;17.80;98.20;;;;;;5071403;28;20629;-48
2021/07/01 02:54:20;;;;;;;5.10;4.30;;;18.00;98.10;;;;;;5069883;28;20994;-49
2021/07/01 02:56:48;;;;;;;4.97;4.30;;;18.20;98.10;;;;;;5069989;28;20813;-48
2021/07/01 02:59:15;;;;;;;4.07;3.77;;;18.10;97.80;;;;;;5070402;28;21110;-49
2021/07/01 03:01:43;;;;;;;5.00;4.37;;;18.00;97.70;;;;;;5070505;28;21169;-48
2021/07/01 03:04:10;;;;;;;6.20;3.97;;;17.90;97.70;;;;;;5070264;28;20692;-49
2021/07/01 03:06:38;;;;;;;5.77;4.03;;;17.80;97.80;;;;;;5070151;28;20662;-49
2021/07/01 03:09:06;;;;;;;5.13;4.63;;;18.00;98.50;;;;;;5069540;28;20657;-49
2021/07/01 03:11:33;;;;;;;3.67;3.47;;;18.00;98.50;;;;;;5070066;28;21070;-49
2021/07/01 03:14:01;;;;;;;4.53;4.10;;;18.10;98.10;;;;;;5070402;28;20753;-48
2021/07/01 03:16:28;;;;;;;4.20;3.80;;;18.20;97.70;;;;;;5069652;28;20688;-49
2021/07/01 03:18:55;;;;;;;4.50;3.50;;;18.10;97.50;;;;;;5069368;28;21248;-48
2021/07/01 03:21:22;;;;;;;4.30;3.47;;;18.00;97.40;;;;;;5070405;28;21392;-48
2021/07/01 03:23:51;;;;;;;3.87;3.57;;;17.80;97.50;;;;;;5071053;28;20665;-48
2021/07/01 03:26:18;;;;;;;6.20;3.87;;;17.70;98.10;;;;;;5069922;28;20617;-47
2021/07/01 03:28:45;;;;;;;3.57;3.27;;;17.80;98.30;;;;;;5051833;28;21061;-50
2021/07/01 03:31:13;;;;;;;5.90;4.53;;;17.80;98.40;;;;;;5069405;28;20671;-48
2021/07/01 03:33:40;;;;;;;8.40;3.70;;;17.70;97.70;;;;;;5070075;28;20682;-50
2021/07/01 03:36:08;;;;;;;5.50;4.47;;;17.70;98.10;;;;;;5069350;28;20696;-48
2021/07/01 03:38:35;;;;;;;4.53;4.23;;;17.60;98.20;;;;;;5069320;28;20657;-48
2021/07/01 03:41:04;;;;;;;6.33;4.57;;;17.50;98.60;;;;;;5069023;28;20629;-47
2021/07/01 03:43:32;;;;;;;5.53;4.77;;;17.50;98.90;;;;;;5069168;28;20765;-49
2021/07/01 03:45:59;;;;;;;6.07;5.47;;;17.50;98.60;;;;;;5069174;28;20829;-47
2021/07/01 03:48:26;;;;;;;5.63;4.50;;;17.50;98.70;;;;;;5069372;28;20764;-46
2021/07/01 03:50:53;;;;;;;6.13;5.43;;;17.50;98.80;;;;;;5069050;28;20664;-47
2021/07/01 03:53:21;;;;;;;6.00;5.23;;;17.60;98.50;;;;;;5069299;28;20633;-47
2021/07/01 03:55:48;;;;;;;7.33;5.13;;;17.50;98.70;;;;;;5068744;28;20700;-47
2021/07/01 03:58:16;;;;;;;5.50;5.00;;;17.50;98.80;;;;;;5069440;28;21260;-48
2021/07/01 04:00:44;;;;;;;6.60;4.80;;;17.40;98.80;;;;;;5069075;28;20653;-48
2021/07/01 04:03:11;;;;;;;5.67;5.17;;;17.50;99.10;;;;;;5069457;28;20656;-48
2021/07/01 04:05:38;;;;;;;5.20;4.80;;;17.70;98.80;;;;;;5069394;28;20681;-47
2021/07/01 04:08:06;;;;;;;10.00;4.93;;;17.70;98.70;;;;;;5070078;28;20636;-48
2021/07/01 04:10:33;;;;;;;5.23;4.73;;;17.70;98.60;;;;;;5069246;28;20676;-47
2021/07/01 04:13:00;;;;;;;5.93;5.10;;;17.70;98.60;;;;;;5068944;28;20711;-48
2021/07/01 04:15:29;;;;;;;7.70;4.80;;;17.70;98.30;;;;;;5069452;28;20679;-46
2021/07/01 04:17:56;;;;;;;3.67;3.03;;;17.70;98.40;;;;;;5070346;28;20636;-47
2021/07/01 04:20:23;;;;;;;3.53;3.23;;;17.80;98.50;;;;;;5069188;28;20661;-46
2021/07/01 04:22:50;;;;;;;7.03;4.33;;;18.00;98.10;;;;;;5069601;28;20665;-49
2021/07/01 04:25:18;;;;;;;4.53;3.20;;;18.20;97.80;;;;;;5068571;28;20660;-48
2021/07/01 04:27:45;;;;;;;4.30;3.90;;;18.20;97.60;;;;;;5069721;28;20710;-47
2021/07/01 04:30:13;;;;;;;3.60;3.30;;;18.20;97.20;;;;;;5068825;28;20621;-47
2021/07/01 04:32:42;;;;;;;3.40;3.10;;;18.20;97.10;;;;;;5054569;28;20736;-47
2021/07/01 04:35:09;;;;;;;3.80;3.30;;;18.00;97.30;;;;;;5072648;28;21217;-49
2021/07/01 04:37:37;;;;;;;3.60;3.30;;;17.90;97.40;;;;;;5072913;28;21236;-48
2021/07/01 04:40:07;;;;;;;6.77;4.20;;;17.90;97.90;;;;;;5073017;28;20629;-47
2021/07/01 04:42:35;;;;;;;4.33;3.97;;;17.80;97.80;;;;;;5072677;28;21012;-48
2021/07/01 04:45:02;;;;;;;3.93;3.53;;;17.80;97.80;;;;;;5072796;28;20706;-48
2021/07/01 04:47:29;;;;;;;4.83;3.43;;;17.80;98.10;;;;;;5072912;28;20633;-49
2021/07/01 04:49:58;;;;;;;5.23;3.77;;;17.70;97.70;;;;;;5072727;28;20997;-48
2021/07/01 04:52:27;;;;;;;3.53;3.00;;;17.60;98.10;;;;;;5072831;28;21169;-49
2021/07/01 04:54:54;;;;;;;4.67;3.73;;;17.90;98.30;;;;;;5072686;28;20797;-48
2021/07/01 04:57:21;;;;;;;3.40;2.90;;;18.00;97.70;;;;;;5072871;28;20649;-50
2021/07/01 04:59:48;;;;;;;3.23;2.90;;;17.90;97.60;;;;;;5073221;28;20637;-50
2021/07/01 05:02:16;;;;;;;3.77;3.30;;;18.10;97.70;;;;;;5072811;28;20621;-50
2021/07/01 05:04:43;;;;;;;3.27;3.07;;;18.20;97.20;;;;;;5072223;28;20706;-49
2021/07/01 05:07:11;;;;;;;4.77;3.43;;;18.30;97.00;;;;;;5072551;28;20774;-50
2021/07/01 05:09:39;;;;;;;5.70;3.27;;;18.10;96.80;;;;;;5071912;28;20629;-50
2021/07/01 05:12:07;;;;;;;4.03;3.63;;;18.00;97.20;;;;;;5072619;28;21194;-48
2021/07/01 05:14:34;;;;;;;3.97;3.67;;;18.00;97.30;;;;;;5072050;28;20787;-49
2021/07/01 05:17:01;;;;;;;6.97;3.37;;;18.00;97.20;;;;;;5070767;28;20734;-49
2021/07/01 05:19:28;;;;;;;3.70;3.40;;;18.00;97.50;;;;;;5071689;28;20693;-49
2021/07/01 05:21:56;;;;;;;6.07;3.90;;;18.10;97.90;;;;;;5071642;28;20629;-49
2021/07/01 05:24:24;;;;;;;3.47;3.17;;;18.10;97.20;;;;;;5071907;28;20652;-49
2021/07/01 05:26:51;;;;;;;4.20;3.37;;;18.20;97.10;;;;;;5071490;28;20690;-49
2021/07/01 05:29:22;;;;;;;7.47;3.43;;;18.00;97.00;;;;;;5071604;28;20625;-49
2021/07/01 05:31:49;;;;;;;7.60;5.97;;;17.90;97.20;;;;;;5071552;28;20670;-48
2021/07/01 05:34:17;;;;;;;5.43;4.90;;;17.80;97.60;;;;;;5072274;28;20687;-47
2021/07/01 05:36:44;;;;;;;6.97;3.93;;;17.90;97.50;;;;;;5072114;28;20759;-50
2021/07/01 05:39:11;;;;;;;4.70;3.50;;;17.80;97.50;;;;;;5070549;28;21025;-51
2021/07/01 05:41:40;;;;;;;4.10;3.70;;;17.60;97.60;;;;;;5072276;28;20625;-49
2021/07/01 05:44:07;;;;;;;4.97;3.33;;;17.50;97.60;;;;;;5052954;28;20706;-49
2021/07/01 05:46:34;;;;;;;4.00;3.60;;;17.50;97.80;;;;;;5054048;28;20720;-49
2021/07/01 05:49:02;;;;;;;3.43;3.13;;;17.30;97.70;;;;;;5070841;28;20698;-49
2021/07/01 05:51:31;;;;;;;4.10;3.43;;;17.20;97.70;;;;;;5071965;28;20975;-52
2021/07/01 05:54:05;;;;;;;3.80;3.37;;;17.10;97.90;;;;;;5071774;28;20720;-51
2021/07/01 05:56:37;;;;;;;9.70;3.33;;;17.10;98.10;;;;;;5071644;28;20632;-51
2021/07/01 05:59:06;;;;;;;5.50;3.10;;;17.00;98.00;;;;;;5072103;28;20681;-51
2021/07/01 06:01:34;;;;;;;4.90;3.87;;;16.90;98.00;;;;;;5071310;28;20633;-49
2021/07/01 06:04:03;;;;;;;3.20;2.90;;;16.90;98.20;;;;;;5072051;28;20707;-50
2021/07/01 06:06:30;;;;;;;4.77;2.77;;;16.80;98.30;;;;;;5071863;28;21015;-49
2021/07/01 06:08:58;;;;;;;4.33;3.93;;;16.80;98.50;;;;;;5071553;28;20686;-49
2021/07/01 06:11:25;;;;;;;4.47;4.00;;;16.80;98.50;;;;;;5071332;28;20625;-49
2021/07/01 06:13:52;;;;;;;3.83;3.43;;;16.80;98.60;;;;;;5070994;28;20682;-50
2021/07/01 06:16:21;;;;;;;3.50;3.20;;;16.70;98.60;;;;;;5071056;28;20663;-49
2021/07/01 06:18:50;;;;;;;4.40;3.23;;;16.70;98.80;;;;;;5071028;28;20714;-50
2021/07/01 06:21:17;;;;;;;3.60;3.30;;;16.80;98.90;;;;;;5071535;28;20621;-50
2021/07/01 06:23:46;;;;;;;3.43;3.13;;;16.70;98.70;;;;;;5071078;28;20625;-49
2021/07/01 06:26:14;;;;;;;3.50;3.20;;;16.70;98.80;;;;;;5070829;28;20698;-50
2021/07/01 06:28:43;;;;;;;5.33;4.17;;;16.70;98.70;;;;;;5071387;28;21019;-49
2021/07/01 06:31:10;;;;;;;3.90;3.60;;;16.70;98.80;;;;;;5071307;28;20656;-49
2021/07/01 06:33:41;;;;;;;4.43;4.03;;;16.70;98.90;;;;;;5070551;28;20963;-50
2021/07/01 06:36:09;;;;;;;4.97;3.97;;;16.80;99.00;;;;;;5070866;28;20687;-50
2021/07/01 06:38:37;;;;;;;6.40;3.67;;;16.80;99.00;;;;;;5070676;28;21259;-50
2021/07/01 06:41:04;;;;;;;5.70;4.10;;;16.80;98.90;;;;;;5071415;28;20672;-51
2021/07/01 06:43:31;;;;;;;3.53;3.33;;;16.80;99.10;;;;;;5070446;28;21154;-50
2021/07/01 06:45:58;;;;;;;7.23;4.90;;;16.80;98.80;;;;;;5070259;28;20629;-50
2021/07/01 06:48:26;;;;;;;4.30;3.90;;;16.80;98.70;;;;;;5070609;28;20640;-51
2021/07/01 06:50:56;;;;;;;4.80;3.97;;;16.80;98.70;;;;;;5070367;28;20629;-50
2021/07/01 06:53:23;;;;;;;5.37;3.70;;;16.80;98.70;;;;;;5070410;28;20666;-50
2021/07/01 06:55:51;;;;;;;8.00;4.03;;;16.80;98.70;;;;;;5070385;28;20669;-49
2021/07/01 06:58:18;;;;;;;3.73;3.33;;;16.70;98.60;;;;;;5070970;28;20689;-49
2021/07/01 07:00:45;;;;;;;5.00;3.90;;;16.70;98.60;;;;;;5070579;28;20663;-50
2021/07/01 07:03:17;;;;;;;7.40;4.50;;;16.70;98.70;;;;;;5069790;28;20621;-50
2021/07/01 07:05:45;;;;;;;4.30;3.90;;;16.70;98.80;;;;;;5070010;28;20657;-50
2021/07/01 07:08:15;;;;;;;3.90;3.43;;;16.70;98.90;;;;;;5069935;28;21223;-50
2021/07/01 07:10:43;;;;;;;4.20;3.43;;;16.70;98.70;;;;;;5069700;28;20682;-49
2021/07/01 07:13:14;;;;;;;6.23;3.67;;;16.60;98.70;;;;;;5069643;28;21165;-49
2021/07/01 07:15:41;;;;;;;4.07;3.30;;;16.60;98.80;;;;;;5066593;28;21197;-49
2021/07/01 07:18:14;;;;;;;4.20;3.80;;;16.60;98.90;;;;;;5068617;28;20681;-49
2021/07/01 07:20:42;;;;;;;5.93;4.30;;;16.60;98.90;;;;;;5066008;28;20661;-49
2021/07/01 07:23:09;;;;;;;5.23;3.40;;;16.70;98.90;;;;;;5068684;28;20651;-49
2021/07/01 07:25:40;;;;;;;4.37;3.97;;;16.70;99.00;;;;;;5092659;22;20681;-54
2021/07/01 07:28:09;;;;;;;5.37;4.23;;;16.70;98.90;;;;;;5067396;28;21038;-53
2021/07/01 07:30:36;;;;;;;5.50;5.00;;;16.70;98.90;;;;;;5068987;28;20625;-53
2021/07/01 07:33:05;;;;;;;4.10;3.70;;;16.70;98.70;;;;;;5071194;28;20626;-52
2021/07/01 07:35:32;;;;;;;5.07;4.53;;;16.70;98.70;;;;;;5068623;28;20653;-52
2021/07/01 07:37:59;;;;;;;5.60;4.07;;;16.70;98.70;;;;;;5050752;28;20646;-53
2021/07/01 07:40:27;;;;;;;4.23;3.83;;;16.70;98.60;;;;;;5048880;28;20633;-53
2021/07/01 07:42:58;;;;;;;5.30;4.07;;;16.70;98.50;;;;;;5051651;28;20633;-53
2021/07/01 07:45:26;;;;;;;5.87;4.90;;;16.70;98.50;;;;;;5051727;28;20658;-53
2021/07/01 07:47:56;;;;;;;5.13;3.73;;;16.70;98.50;;;;;;5051809;28;20619;-53
2021/07/01 07:50:23;;;;;;;3.93;3.53;;;16.70;98.40;;;;;;5051318;28;20744;-53
2021/07/01 07:52:51;;;;;;;4.77;4.40;;;16.70;98.50;;;;;;5050602;28;21035;-52
2021/07/01 07:55:21;;;;;;;4.57;4.17;;;16.70;98.30;;;;;;5049454;28;20665;-53
2021/07/01 07:57:51;;;;;;;5.20;3.70;;;16.80;98.40;;;;;;5050623;28;20723;-56
2021/07/01 08:00:21;;;;;;;8.77;4.33;;;16.90;98.50;;;;;;5066591;28;20650;-55
2021/07/01 08:02:51;;;;;;;9.50;4.80;;;16.90;98.10;;;;;;5050307;28;20617;-53
2021/07/01 08:05:20;;;;;;;4.37;3.50;;;17.00;98.10;;;;;;5046369;28;20638;-52
2021/07/01 08:07:47;;;;;;;4.57;3.40;;;17.10;98.00;;;;;;5050211;28;21149;-54
2021/07/01 08:10:16;;;;;;;4.03;3.50;;;17.10;97.80;;;;;;5050507;28;20683;-51
2021/07/01 08:12:46;;;;;;;3.70;3.40;;;17.20;97.80;;;;;;5050830;28;20626;-54
2021/07/01 08:15:14;;;;;;;2.93;2.67;;;17.20;97.40;;;;;;5050393;28;20657;-51
2021/07/01 08:17:44;;;;;;;3.20;2.90;;;17.20;97.10;;;;;;5049821;28;20708;-54
2021/07/01 08:20:12;;;;;;;3.87;3.07;;;17.20;96.90;;;;;;5050825;28;20687;-54
2021/07/01 08:22:40;;;;;;;4.57;3.50;;;17.20;96.70;;;;;;5051199;28;21193;-54
2021/07/01 08:25:08;;;;;;;3.60;3.30;;;17.20;96.80;;;;;;5051101;28;20653;-53
2021/07/01 08:27:36;;;;;;;3.30;3.10;;;17.20;96.70;;;;;;5050879;28;20634;-53
2021/07/01 08:30:03;;;;;;;6.10;3.27;;;17.20;96.30;;;;;;5051512;28;21344;-57
2021/07/01 08:32:31;;;;;;;2.97;2.67;;;17.20;96.50;;;;;;5050445;28;20678;-52
2021/07/01 08:35:00;;;;;;;3.57;2.80;;;17.30;96.40;;;;;;5049750;28;20732;-51
2021/07/01 08:37:28;;;;;;;3.40;2.43;;;17.20;96.40;;;;;;5050534;28;20674;-54
2021/07/01 08:39:55;;;;;;;3.80;3.20;;;17.30;96.20;;;;;;5049078;28;20688;-53
2021/07/01 08:42:25;;;;;;;9.30;3.40;;;17.30;96.00;;;;;;5032667;28;20654;-51
2021/07/01 08:44:56;;;;;;;2.80;2.30;;;17.30;96.00;;;;;;5050792;28;20650;-53
2021/07/01 08:47:25;;;;;;;3.27;2.43;;;17.30;95.90;;;;;;5050185;28;20713;-53
2021/07/01 08:49:54;;;;;;;5.57;2.30;;;17.30;95.90;;;;;;5050073;28;20952;-53
2021/07/01 08:52:27;;;;;;;3.67;2.10;;;17.30;95.90;;;;;;5049298;28;20676;-53
2021/07/01 08:54:59;;;;;;;2.63;2.07;;;17.30;96.20;;;;;;5049139;28;20662;-52
2021/07/01 08:57:31;;;;;;;3.83;2.37;;;17.40;96.30;;;;;;5049954;28;20622;-51
2021/07/01 09:00:02;;;;;;;2.50;2.30;;;17.40;96.20;;;;;;5050428;28;20754;-53
2021/07/01 09:02:39;;;;;;;2.47;2.27;;;17.50;96.10;;;;;;5032770;28;20634;-56
2021/07/01 09:05:12;;;;;;;3.07;2.50;;;17.60;96.10;;;;;;5050629;28;20661;-55
2021/07/01 09:07:40;;;;;;;1.70;1.60;;;17.60;95.70;;;;;;5048611;28;21178;-51
2021/07/01 09:10:11;;;;;;;2.30;2.10;;;17.60;95.50;;;;;;5049519;28;20684;-52
2021/07/01 09:12:42;;;;;;;2.33;1.97;;;17.60;95.60;;;;;;5051330;28;20643;-53
2021/07/01 09:15:10;;;;;;;2.53;2.33;;;17.70;96.00;;;;;;5051166;28;20715;-55
2021/07/01 09:17:38;;;;;;;2.37;2.17;;;17.70;95.40;;;;;;5052923;28;20621;-52
2021/07/01 09:20:07;;;;;;;2.27;2.07;;;17.70;95.40;;;;;;5053884;28;20661;-51
2021/07/01 09:22:34;;;;;;;2.60;2.10;;;17.70;95.40;;;;;;5053222;28;21044;-52
2021/07/01 09:25:03;;;;;;;2.23;2.03;;;17.60;95.40;;;;;;5053221;28;20732;-53
2021/07/01 09:27:30;;;;;;;2.47;2.27;;;17.60;95.30;;;;;;5054202;28;20621;-56
2021/07/01 09:29:58;;;;;;;2.63;2.43;;;17.60;95.50;;;;;;5036807;28;20630;-56
2021/07/01 09:32:27;;;;;;;2.80;2.60;;;17.60;95.70;;;;;;5035695;28;20672;-52
2021/07/01 09:34:54;;;;;;;1.83;1.73;;;17.60;95.70;;;;;;5052551;28;20662;-53
2021/07/01 09:37:22;;;;;;;3.37;3.07;;;17.60;95.70;;;;;;5053315;28;20687;-53
2021/07/01 09:39:50;;;;;;;1.80;1.70;;;17.50;95.90;;;;;;5052372;28;20650;-53
2021/07/01 09:42:19;;;;;;;1.67;1.50;;;17.50;96.00;;;;;;5053649;28;21028;-52
2021/07/01 09:44:46;;;;;;;2.07;1.97;;;17.50;95.90;;;;;;5053175;28;20654;-51
2021/07/01 09:47:14;;;;;;;2.17;1.73;;;17.50;96.00;;;;;;5053151;28;21429;-56
2021/07/01 09:49:42;;;;;;;1.80;1.70;;;17.50;96.20;;;;;;5034802;28;21181;-54
2021/07/01 09:52:10;;;;;;;4.60;1.93;;;17.50;96.00;;;;;;5052614;28;20622;-53
2021/07/01 09:54:38;;;;;;;2.90;1.87;;;17.50;96.10;;;;;;5050194;28;20695;-53
2021/07/01 09:57:10;;;;;;;2.13;2.00;;;17.60;96.00;;;;;;5040996;28;20643;-53
2021/07/01 09:59:47;;;;;;;2.07;1.97;;;17.70;96.10;;;;;;5053511;28;20685;-52
2021/07/01 10:02:16;;;;;;;2.50;2.30;;;17.90;96.00;;;;;;5052465;28;20680;-53
2021/07/01 10:04:47;;;;;;;2.80;1.67;;;17.90;95.40;;;;;;5052298;28;20657;-55
2021/07/01 10:07:17;;;;;;;1.50;1.40;;;17.90;95.30;;;;;;5067819;28;20630;-53
2021/07/01 10:09:44;;;;;;;2.43;1.80;;;17.90;95.10;;;;;;5052542;28;20713;-53
2021/07/01 10:12:16;;;;;;;2.53;1.43;;;17.90;94.30;;;;;;5035489;28;20629;-50
2021/07/01 10:14:45;;;;;;;2.20;2.00;;;17.90;94.20;;;;;;5052560;28;21240;-50
2021/07/01 10:17:13;;;;;;;2.07;1.87;;;17.90;94.10;;;;;;5052752;28;20625;-52
2021/07/01 10:19:40;;;;;;;1.70;1.43;;;17.90;94.10;;;;;;5052687;28;20662;-54
2021/07/01 10:22:08;;;;;;;3.23;1.37;;;17.90;94.00;;;;;;5053589;28;20927;-54
2021/07/01 10:24:54;;;;;;;1.30;1.10;;;17.80;94.00;;;;;;5051563;28;21029;-55
2021/07/01 10:27:29;;;;;;;1.40;1.10;;;17.70;93.90;;;;;;5052731;28;20625;-53
2021/07/01 10:29:59;;;;;;;1.37;1.27;;;17.70;94.30;;;;;;5051286;28;20729;-52
2021/07/01 10:32:37;;;;;;;1.87;1.50;;;17.70;94.20;;;;;;5052228;28;20713;-53
2021/07/01 10:35:19;;;;;;;2.70;1.77;;;17.70;94.40;;;;;;5053291;28;21080;-53
2021/07/01 10:38:03;;;;;;;1.40;1.30;;;17.80;94.60;;;;;;5053214;28;20637;-52
2021/07/01 10:40:32;;;;;;;2.00;1.80;;;17.90;94.20;;;;;;5054955;28;20685;-55
2021/07/01 10:42:59;;;;;;;2.77;2.57;;;17.90;93.70;;;;;;5053095;28;20622;-55
2021/07/01 10:45:28;;;;;;;2.23;1.80;;;18.00;93.80;;;;;;5053073;28;20661;-53
2021/07/01 10:48:10;;;;;;;1.80;1.70;;;18.00;93.60;;;;;;5052743;28;20622;-56
2021/07/01 10:50:40;;;;;;;1.80;1.07;;;18.10;93.40;;;;;;5051744;28;20614;-53
2021/07/01 10:53:26;;;;;;;1.83;1.13;;;18.20;93.00;;;;;;5034313;28;20985;-53
2021/07/01 10:55:54;;;;;;;3.57;1.10;;;18.20;93.00;;;;;;5053601;28;20676;-53
2021/07/01 10:58:22;;;;;;;2.50;2.30;;;18.20;92.90;;;;;;5052462;28;20717;-52
2021/07/01 11:00:51;;;;;;;1.37;1.00;;;18.20;92.90;;;;;;5052791;28;20662;-52
2021/07/01 11:03:21;;;;;;;0.80;0.70;;;18.10;93.00;;;;;;5052552;28;21052;-52
2021/07/01 11:05:48;;;;;;;1.10;0.70;;;18.00;93.20;;;;;;5051461;28;21258;-53
2021/07/01 11:08:24;;;;;;;1.37;1.10;;;18.00;93.70;;;;;;5051753;28;21157;-52
2021/07/01 11:10:51;;;;;;;0.80;0.80;;;17.90;93.80;;;;;;5051405;28;20679;-52
2021/07/01 11:13:19;;;;;;;3.00;1.00;;;17.90;93.90;;;;;;5034175;28;20676;-54
2021/07/01 11:16:04;;;;;;;4.00;0.70;;;17.90;93.80;;;;;;5052181;28;20677;-54
2021/07/01 11:18:36;;;;;;;0.90;0.80;;;18.00;93.90;;;;;;5034724;28;20985;-53
2021/07/01 11:21:07;;;;;;;1.20;1.10;;;18.00;93.90;;;;;;5034407;28;20652;-55
2021/07/01 11:23:35;;;;;;;0.93;0.80;;;18.00;94.00;;;;;;5051598;28;20633;-53
2021/07/01 11:26:02;;;;;;;0.73;0.73;;;18.00;93.70;;;;;;5050727;28;20661;-57
2021/07/01 11:28:30;;;;;;;1.10;1.00;;;17.90;93.50;;;;;;5052589;28;20602;-53
2021/07/01 11:31:00;;;;;;;0.87;0.87;;;17.90;93.60;;;;;;5051549;28;20688;-52
2021/07/01 11:33:29;;;;;;;2.00;1.23;;;17.90;93.70;;;;;;5052263;28;21186;-53
2021/07/01 11:36:13;;;;;;;2.43;1.90;;;17.90;93.60;;;;;;5052135;28;20660;-52
2021/07/01 11:38:40;;;;;;;1.43;1.33;;;17.90;93.60;;;;;;5050256;28;20632;-51
2021/07/01 11:41:08;;;;;;;1.67;1.50;;;17.90;93.70;;;;;;5051332;28;21222;-54
2021/07/01 11:43:36;;;;;;;5.53;1.40;;;17.90;93.90;;;;;;5052006;28;20641;-55
2021/07/01 11:46:03;;;;;;;1.27;0.90;;;17.90;94.00;;;;;;5051674;28;20707;-52
2021/07/01 11:48:33;;;;;;;1.27;1.17;;;17.90;94.00;;;;;;5034300;28;21252;-55
2021/07/01 11:51:02;;;;;;;3.73;1.30;;;17.90;94.20;;;;;;5042689;28;20634;-55
2021/07/01 11:53:29;;;;;;;1.30;1.20;;;17.90;94.20;;;;;;5051173;28;21344;-54
2021/07/01 11:56:00;;;;;;;1.43;1.33;;;17.90;94.20;;;;;;5050262;28;20756;-56
2021/07/01 11:58:32;;;;;;;1.57;1.40;;;17.90;94.50;;;;;;5050276;28;21186;-53
2021/07/01 12:01:00;;;;;;;2.13;1.93;;;17.90;94.80;;;;;;5050672;28;20673;-56
2021/07/01 12:03:29;;;;;;;2.97;2.50;;;18.00;95.00;;;;;;5052233;28;20634;-57
2021/07/01 12:05:58;;;;;;;1.03;0.80;;;18.10;95.10;;;;;;5032364;28;20665;-52
2021/07/01 12:08:26;;;;;;;1.43;1.20;;;18.10;94.30;;;;;;5050485;28;21204;-56
2021/07/01 12:11:00;;;;;;;2.23;2.00;;;18.10;93.90;;;;;;5050387;28;20622;-53
2021/07/01 12:13:43;;;;;;;2.00;1.80;;;18.10;93.80;;;;;;5050713;28;20676;-53
2021/07/01 12:16:12;;;;;;;2.80;2.17;;;18.20;93.90;;;;;;5051263;28;21014;-52
2021/07/01 12:18:53;;;;;;;2.23;1.70;;;18.20;93.90;;;;;;5051004;28;21038;-52
2021/07/01 12:21:23;;;;;;;2.53;2.13;;;18.30;93.40;;;;;;5030187;28;20717;-52
2021/07/01 12:23:51;;;;;;;2.80;2.50;;;18.30;93.30;;;;;;5029742;28;20723;-53
2021/07/01 12:26:44;;;;;;;2.70;2.50;;;18.30;93.50;;;;;;5030879;28;20662;-52
2021/07/01 12:29:14;;;;;;;4.93;3.03;;;18.20;93.00;;;;;;5048299;28;21236;-52
2021/07/01 12:31:43;;;;;;;2.63;2.43;;;18.30;93.10;;;;;;5033044;28;20622;-53
2021/07/01 12:34:12;;;;;;;2.70;2.50;;;18.30;92.20;;;;;;5050032;28;20638;-55
2021/07/01 12:36:42;;;;;;;2.10;1.93;;;18.30;92.20;;;;;;5030580;28;20637;-52
2021/07/01 12:39:14;;;;;;;3.47;3.00;;;18.30;92.20;;;;;;5048031;28;20680;-53
2021/07/01 12:41:45;;;;;;;2.80;1.80;;;18.30;92.30;;;;;;5051161;28;20666;-52
2021/07/01 12:44:15;;;;;;;3.10;2.43;;;18.30;92.30;;;;;;5033233;28;20756;-55
2021/07/01 12:47:11;;;;;;;3.57;2.40;;;18.30;92.20;;;;;;5050344;28;21208;-55
2021/07/01 12:50:07;;;;;;;2.60;2.40;;;18.30;91.90;;;;;;5051340;28;20654;-55
2021/07/01 12:52:45;;;;;;;3.53;3.23;;;18.30;91.70;;;;;;5054166;28;21191;-56
2021/07/01 12:55:29;;;;;;;2.97;2.73;;;18.30;92.10;;;;;;5054202;28;20649;-57